Time;durP1;ratioP1;P1;durP2;ratioP2;P2;SDS_P1;SDS_P2;PMS_P1;PMS_P2;Temp;Humidity;BMP_temperature;BMP_pressure;BME280_temperature;BME280_humidity;BME280_pressure;Samples;Min_cycle;Max_cycle;Signal;HPM_P1;HPM_P2
2022/05/15 00:00:41;;;;;;;6.20;5.60;;;15.80;85.90;;;;;;5074120;28;20260;-69
2022/05/15 00:03:12;;;;;;;6.70;5.60;;;15.80;85.70;;;;;;5074046;28;20214;-69
2022/05/15 00:05:39;;;;;;;6.28;5.70;;;15.80;85.60;;;;;;5074188;28;20223;-69
2022/05/15 00:08:07;;;;;;;6.95;5.43;;;15.60;86.80;;;;;;5073956;28;20205;-69
2022/05/15 00:10:34;;;;;;;5.93;4.80;;;15.60;87.60;;;;;;5074167;28;20208;-69
2022/05/15 00:13:02;;;;;;;4.10;3.80;;;15.70;85.20;;;;;;5073606;28;20659;-69
2022/05/15 00:15:31;;;;;;;4.65;4.25;;;15.70;86.20;;;;;;5073762;28;20226;-69
2022/05/15 00:17:58;;;;;;;5.20;4.68;;;15.80;86.50;;;;;;5073736;28;20217;-69
2022/05/15 00:20:24;;;;;;;3.88;3.55;;;15.80;87.60;;;;;;5074097;28;20212;-69
2022/05/15 00:22:52;;;;;;;4.80;4.05;;;15.90;86.60;;;;;;5073746;28;20225;-69
2022/05/15 00:25:18;;;;;;;4.68;4.20;;;15.90;86.70;;;;;;5073867;28;20228;-69
2022/05/15 00:27:47;;;;;;;4.00;3.70;;;15.90;87.10;;;;;;5073974;28;20212;-69
2022/05/15 00:30:17;;;;;;;4.22;3.92;;;15.90;88.10;;;;;;5073894;28;20567;-69
2022/05/15 00:32:44;;;;;;;4.22;3.80;;;15.90;87.30;;;;;;5073565;28;20202;-68
2022/05/15 00:35:11;;;;;;;5.20;4.70;;;16.00;89.30;;;;;;5073809;28;20226;-69
2022/05/15 00:37:38;;;;;;;4.80;4.30;;;15.90;89.00;;;;;;5073517;28;20668;-69
2022/05/15 00:40:08;;;;;;;4.82;4.43;;;15.90;88.90;;;;;;5073774;28;20301;-69
2022/05/15 00:42:35;;;;;;;4.80;4.40;;;16.00;89.70;;;;;;5073452;28;20236;-69
2022/05/15 00:45:03;;;;;;;4.90;4.35;;;15.80;89.00;;;;;;5073448;28;20264;-69
2022/05/15 00:47:31;;;;;;;4.60;4.18;;;15.70;89.40;;;;;;5073578;28;20565;-69
2022/05/15 00:49:58;;;;;;;5.47;4.55;;;15.70;89.80;;;;;;5073628;28;20259;-69
2022/05/15 00:52:29;;;;;;;4.80;4.40;;;15.70;90.00;;;;;;5073394;28;20201;-69
2022/05/15 00:55:01;;;;;;;5.70;5.22;;;15.70;90.10;;;;;;5073539;28;20237;-69
2022/05/15 00:57:33;;;;;;;5.15;4.57;;;15.60;88.90;;;;;;5073660;28;20283;-69
2022/05/15 01:00:05;;;;;;;5.00;4.70;;;15.60;90.10;;;;;;5073526;28;20201;-69
2022/05/15 01:02:38;;;;;;;6.55;5.95;;;15.50;90.60;;;;;;5073292;28;20315;-69
2022/05/15 01:05:06;;;;;;;6.60;5.97;;;15.50;91.80;;;;;;5073331;28;20707;-69
2022/05/15 01:07:33;;;;;;;7.07;5.63;;;15.50;92.50;;;;;;5073547;28;20201;-69
2022/05/15 01:10:00;;;;;;;6.15;5.60;;;15.50;92.50;;;;;;5073469;28;20263;-69
2022/05/15 01:12:28;;;;;;;6.72;6.13;;;15.50;92.70;;;;;;5073250;28;20702;-69
2022/05/15 01:14:55;;;;;;;6.45;5.80;;;15.50;93.10;;;;;;5073298;28;20315;-69
2022/05/15 01:17:22;;;;;;;7.15;6.18;;;15.40;93.10;;;;;;5073412;28;20201;-69
2022/05/15 01:19:50;;;;;;;6.53;5.93;;;15.20;94.20;;;;;;5073344;28;20201;-69
2022/05/15 01:22:18;;;;;;;6.55;5.95;;;15.30;94.70;;;;;;5073094;28;20261;-69
2022/05/15 01:24:45;;;;;;;6.90;6.20;;;15.30;95.00;;;;;;5073241;28;20591;-69
2022/05/15 01:27:13;;;;;;;6.70;6.10;;;15.30;95.10;;;;;;5073285;28;20621;-69
2022/05/15 01:29:44;;;;;;;7.10;6.43;;;15.30;94.70;;;;;;5073243;28;20211;-69
2022/05/15 01:32:11;;;;;;;6.50;5.80;;;15.30;94.50;;;;;;5072989;28;20210;-69
2022/05/15 01:34:38;;;;;;;5.30;4.80;;;15.40;94.30;;;;;;5073112;28;20214;-69
2022/05/15 01:37:06;;;;;;;5.10;4.60;;;15.30;93.20;;;;;;5073190;28;20296;-70
2022/05/15 01:39:34;;;;;;;5.97;5.47;;;15.20;93.80;;;;;;5073101;28;20581;-69
2022/05/15 01:42:02;;;;;;;5.60;5.00;;;15.20;94.50;;;;;;5073054;28;20226;-69
2022/05/15 01:44:29;;;;;;;5.90;5.13;;;15.20;94.10;;;;;;5072894;28;20208;-69
2022/05/15 01:46:56;;;;;;;5.10;4.60;;;15.20;94.70;;;;;;5073189;28;20205;-69
2022/05/15 01:49:23;;;;;;;5.32;4.85;;;15.10;94.80;;;;;;5073033;28;20210;-69
2022/05/15 01:51:50;;;;;;;5.88;5.25;;;15.10;95.10;;;;;;5073001;28;20206;-69
2022/05/15 01:54:17;;;;;;;6.15;4.93;;;15.10;95.00;;;;;;5072475;28;20221;-69
2022/05/15 01:56:45;;;;;;;4.32;3.92;;;15.00;94.80;;;;;;5072982;28;20252;-69
2022/05/15 01:59:12;;;;;;;4.85;4.32;;;14.90;94.20;;;;;;5076052;28;20211;-69
2022/05/15 02:01:40;;;;;;;4.32;3.92;;;14.80;94.20;;;;;;5076562;28;20228;-69
2022/05/15 02:04:07;;;;;;;5.05;4.65;;;14.80;93.80;;;;;;5076388;28;20685;-69
2022/05/15 02:06:35;;;;;;;4.55;4.15;;;14.80;94.50;;;;;;5076406;28;20235;-69
2022/05/15 02:09:02;;;;;;;5.85;4.70;;;14.70;95.70;;;;;;5076521;28;20207;-69
2022/05/15 02:11:29;;;;;;;5.45;4.97;;;14.80;95.20;;;;;;5076453;28;20238;-69
2022/05/15 02:13:57;;;;;;;9.13;4.78;;;14.80;95.30;;;;;;5076244;28;20208;-69
2022/05/15 02:16:24;;;;;;;4.95;4.53;;;14.80;95.50;;;;;;5076401;28;20246;-69
2022/05/15 02:18:51;;;;;;;5.97;5.38;;;14.90;96.30;;;;;;5076235;28;20667;-69
2022/05/15 02:21:18;;;;;;;6.78;4.85;;;14.90;96.30;;;;;;5076196;28;20565;-69
2022/05/15 02:23:44;;;;;;;6.85;5.18;;;14.90;96.50;;;;;;5076142;28;20201;-69
2022/05/15 02:26:11;;;;;;;6.45;5.85;;;14.90;96.50;;;;;;5076263;28;20259;-69
2022/05/15 02:28:38;;;;;;;6.60;5.75;;;14.80;97.30;;;;;;5076180;28;20208;-69
2022/05/15 02:31:07;;;;;;;6.50;5.72;;;14.80;97.70;;;;;;5076191;28;20207;-69
2022/05/15 02:33:34;;;;;;;5.95;5.35;;;14.80;97.90;;;;;;5075732;28;20200;-69
2022/05/15 02:36:02;;;;;;;7.53;5.07;;;14.80;97.80;;;;;;5076050;28;20225;-69
2022/05/15 02:38:29;;;;;;;6.05;5.55;;;14.80;97.70;;;;;;5076080;28;20208;-69
2022/05/15 02:40:55;;;;;;;5.97;5.45;;;14.70;97.40;;;;;;5076075;28;20206;-69
2022/05/15 02:43:22;;;;;;;5.63;5.15;;;14.70;97.70;;;;;;5075664;28;20221;-69
2022/05/15 02:45:49;;;;;;;5.40;4.95;;;14.70;97.90;;;;;;5075973;28;20712;-69
2022/05/15 02:51:04;;;;;;;6.20;5.60;;;14.50;97.30;;;;;;5076348;28;20668;-70
2022/05/15 02:53:31;;;;;;;6.18;5.38;;;14.50;97.80;;;;;;5075796;28;20204;-69
2022/05/15 02:55:58;;;;;;;5.95;4.63;;;14.50;98.10;;;;;;5075646;28;20613;-69
2022/05/15 02:58:25;;;;;;;5.72;5.22;;;14.50;97.80;;;;;;5075680;28;20224;-69
2022/05/15 03:00:51;;;;;;;6.57;5.30;;;14.50;97.90;;;;;;5075285;28;20207;-69
2022/05/15 03:03:20;;;;;;;5.28;4.75;;;14.40;98.00;;;;;;5075078;28;20801;-69
2022/05/15 03:05:46;;;;;;;6.75;5.30;;;14.40;98.60;;;;;;5075188;28;20254;-69
2022/05/15 03:08:13;;;;;;;5.88;5.25;;;14.30;98.30;;;;;;5075228;28;20203;-69
2022/05/15 03:10:40;;;;;;;5.50;5.00;;;14.30;98.60;;;;;;5075322;28;20679;-69
2022/05/15 03:13:07;;;;;;;5.53;5.03;;;14.30;98.60;;;;;;5075013;28;20235;-69
2022/05/15 03:15:34;;;;;;;5.60;5.10;;;14.30;98.60;;;;;;5075295;28;20229;-69
2022/05/15 03:18:01;;;;;;;4.75;4.10;;;14.20;98.50;;;;;;5075252;28;20201;-69
2022/05/15 03:20:29;;;;;;;6.32;5.25;;;14.10;98.60;;;;;;5075154;28;20198;-69
2022/05/15 03:22:56;;;;;;;5.13;4.70;;;14.00;99.20;;;;;;5074701;28;20233;-69
2022/05/15 03:25:23;;;;;;;7.97;5.30;;;13.90;99.50;;;;;;5075029;28;20219;-69
2022/05/15 03:27:50;;;;;;;5.78;5.20;;;13.90;99.80;;;;;;5075004;28;20207;-69
2022/05/15 03:30:17;;;;;;;6.07;5.47;;;14.00;99.80;;;;;;5074952;28;20208;-69
2022/05/15 03:32:44;;;;;;;5.65;4.53;;;14.00;99.90;;;;;;5074521;28;20194;-69
2022/05/15 03:35:12;;;;;;;5.07;4.60;;;14.00;99.90;;;;;;5074665;28;20259;-69
2022/05/15 03:37:40;;;;;;;5.88;4.57;;;14.10;99.90;;;;;;5074869;28;20203;-69
2022/05/15 03:40:10;;;;;;;4.10;3.70;;;14.00;99.90;;;;;;5074694;28;20200;-69
2022/05/15 03:42:38;;;;;;;4.50;4.10;;;14.10;99.90;;;;;;5074349;28;20319;-69
2022/05/15 03:45:05;;;;;;;7.10;4.20;;;14.10;99.90;;;;;;5074595;28;20220;-69
2022/05/15 03:47:34;;;;;;;4.40;4.00;;;14.10;99.90;;;;;;5074395;28;20691;-69
2022/05/15 03:50:02;;;;;;;4.47;4.07;;;14.10;99.90;;;;;;5074501;28;20211;-69
2022/05/15 03:52:28;;;;;;;4.15;3.80;;;13.90;99.90;;;;;;5074490;28;20196;-69
2022/05/15 03:54:56;;;;;;;4.55;4.15;;;14.00;99.90;;;;;;5074111;28;20238;-69
2022/05/15 03:57:23;;;;;;;4.80;4.30;;;14.00;99.90;;;;;;5074414;28;20225;-69
2022/05/15 03:59:50;;;;;;;4.30;4.00;;;14.00;99.90;;;;;;5074393;28;20243;-69
2022/05/15 04:02:17;;;;;;;4.60;4.20;;;14.10;99.90;;;;;;5073979;28;20262;-69
2022/05/15 04:04:44;;;;;;;5.10;4.60;;;14.10;99.90;;;;;;5074183;28;20306;-69
2022/05/15 04:07:10;;;;;;;5.63;4.95;;;14.20;99.90;;;;;;5074299;28;20206;-69
2022/05/15 04:09:40;;;;;;;6.25;5.00;;;14.20;99.90;;;;;;5074294;28;20610;-69
2022/05/15 04:12:10;;;;;;;5.95;4.40;;;14.20;99.90;;;;;;5074022;28;20238;-68
2022/05/15 04:14:38;;;;;;;5.88;5.35;;;14.20;99.90;;;;;;5074098;28;20202;-69
2022/05/15 04:17:05;;;;;;;5.45;4.95;;;14.20;99.90;;;;;;5074189;28;20207;-69
2022/05/15 04:19:33;;;;;;;5.85;5.25;;;14.20;99.90;;;;;;5074098;28;20207;-69
2022/05/15 04:22:03;;;;;;;6.18;5.15;;;14.20;99.90;;;;;;5073341;28;20203;-69
2022/05/15 04:24:30;;;;;;;5.95;5.10;;;14.20;99.90;;;;;;5073806;28;20241;-69
2022/05/15 04:26:57;;;;;;;6.28;5.68;;;14.00;99.90;;;;;;5073699;28;20203;-69
2022/05/15 04:29:25;;;;;;;6.72;5.80;;;13.70;99.90;;;;;;5073935;28;20202;-69
2022/05/15 04:31:55;;;;;;;5.68;5.18;;;13.60;99.90;;;;;;5073889;28;20541;-69
2022/05/15 04:34:22;;;;;;;7.43;5.93;;;13.50;99.90;;;;;;5073617;28;20276;-69
2022/05/15 04:36:49;;;;;;;5.38;4.70;;;13.50;99.90;;;;;;5073819;28;20227;-69
2022/05/15 04:39:16;;;;;;;6.30;5.75;;;13.70;99.90;;;;;;5073606;28;20661;-69
2022/05/15 04:41:43;;;;;;;6.15;5.65;;;13.80;99.90;;;;;;5073733;28;20198;-69
2022/05/15 04:44:10;;;;;;;5.75;5.25;;;13.90;99.90;;;;;;5073387;28;20225;-69
2022/05/15 04:46:39;;;;;;;6.07;5.38;;;13.90;99.90;;;;;;5073710;28;20229;-69
2022/05/15 04:49:06;;;;;;;5.45;4.95;;;13.90;99.90;;;;;;5073669;28;20206;-69
2022/05/15 04:51:33;;;;;;;5.30;4.80;;;13.80;99.90;;;;;;5073654;28;20206;-69
2022/05/15 04:54:00;;;;;;;6.00;5.38;;;13.80;99.90;;;;;;5073252;28;20301;-69
2022/05/15 04:56:27;;;;;;;5.20;4.70;;;13.70;99.90;;;;;;5073334;28;20727;-69
2022/05/15 04:58:54;;;;;;;4.90;4.40;;;13.80;99.90;;;;;;5073517;28;20661;-69
2022/05/15 05:01:24;;;;;;;5.90;4.85;;;13.80;99.90;;;;;;5073398;28;20205;-69
2022/05/15 05:03:53;;;;;;;7.72;5.60;;;13.90;99.90;;;;;;5073300;28;20562;-69
2022/05/15 05:06:20;;;;;;;5.68;5.18;;;13.90;99.90;;;;;;5073198;28;20708;-69
2022/05/15 05:08:47;;;;;;;6.35;5.68;;;14.00;99.90;;;;;;5073500;28;20205;-69
2022/05/15 05:11:14;;;;;;;5.82;5.32;;;13.90;99.90;;;;;;5073437;28;20238;-69
2022/05/15 05:13:40;;;;;;;6.00;5.40;;;13.80;99.90;;;;;;5073000;28;20289;-69
2022/05/15 05:16:07;;;;;;;6.50;5.10;;;13.80;99.90;;;;;;5073174;28;20616;-69
2022/05/15 05:18:34;;;;;;;5.97;5.38;;;13.80;99.90;;;;;;5073137;28;20203;-69
2022/05/15 05:21:03;;;;;;;5.80;5.30;;;13.90;99.90;;;;;;5073385;28;20309;-69
2022/05/15 05:23:31;;;;;;;10.05;6.03;;;13.90;99.90;;;;;;5073181;28;20231;-69
2022/05/15 05:25:58;;;;;;;6.45;5.80;;;13.90;99.90;;;;;;5073121;28;20314;-69
2022/05/15 05:28:25;;;;;;;5.75;5.25;;;13.90;99.90;;;;;;5073279;28;20290;-69
2022/05/15 05:30:53;;;;;;;6.28;5.70;;;14.00;99.90;;;;;;5073006;28;20214;-69
2022/05/15 05:33:20;;;;;;;6.57;5.97;;;14.00;99.90;;;;;;5076623;28;20202;-69
2022/05/15 05:35:47;;;;;;;6.50;5.90;;;14.20;99.90;;;;;;5077213;28;20223;-69
2022/05/15 05:38:15;;;;;;;7.00;6.40;;;14.20;99.90;;;;;;5077193;28;20201;-69
2022/05/15 05:40:42;;;;;;;7.38;5.75;;;14.30;99.90;;;;;;5077114;28;20235;-69
2022/05/15 05:43:09;;;;;;;6.60;5.97;;;14.30;99.90;;;;;;5076650;28;20227;-69
2022/05/15 05:45:37;;;;;;;6.72;6.13;;;14.30;99.90;;;;;;5077318;28;20234;-69
2022/05/15 05:48:04;;;;;;;7.20;6.50;;;14.20;99.90;;;;;;5076943;28;20560;-69
2022/05/15 05:50:32;;;;;;;6.82;5.97;;;14.10;99.90;;;;;;5076859;28;20213;-69
2022/05/15 05:52:59;;;;;;;6.82;6.15;;;14.10;99.90;;;;;;5076691;28;20202;-69
2022/05/15 05:55:27;;;;;;;7.50;6.80;;;14.10;99.90;;;;;;5076527;28;20242;-69
2022/05/15 05:57:54;;;;;;;8.70;6.75;;;14.10;99.90;;;;;;5076814;28;20219;-69
2022/05/15 06:00:23;;;;;;;7.32;6.60;;;14.10;99.90;;;;;;5076780;28;20200;-69
2022/05/15 06:02:50;;;;;;;7.22;6.53;;;14.20;99.90;;;;;;5076406;28;20221;-69
2022/05/15 06:05:17;;;;;;;7.15;5.97;;;14.30;99.90;;;;;;5076561;28;20225;-69
2022/05/15 06:07:44;;;;;;;6.65;6.10;;;14.20;99.90;;;;;;5076693;28;20200;-69
2022/05/15 06:10:13;;;;;;;6.50;5.90;;;14.20;99.90;;;;;;5076446;28;20563;-69
2022/05/15 06:12:42;;;;;;;7.18;6.10;;;14.30;99.90;;;;;;5076070;28;20291;-69
2022/05/15 06:15:10;;;;;;;7.78;6.05;;;14.40;99.90;;;;;;5076391;28;20258;-69
2022/05/15 06:17:37;;;;;;;7.20;6.50;;;14.60;99.90;;;;;;5076190;28;20211;-69
2022/05/15 06:20:07;;;;;;;6.50;5.95;;;14.70;99.90;;;;;;5076165;28;20210;-69
2022/05/15 06:22:34;;;;;;;6.85;6.15;;;14.60;99.90;;;;;;5076212;28;20207;-69
2022/05/15 06:25:01;;;;;;;6.90;5.80;;;14.70;99.90;;;;;;5075969;28;20311;-69
2022/05/15 06:27:27;;;;;;;5.82;5.22;;;14.70;99.90;;;;;;5076234;28;20298;-69
2022/05/15 06:29:57;;;;;;;7.07;5.90;;;14.80;99.90;;;;;;5076072;28;20215;-69
2022/05/15 06:32:25;;;;;;;5.90;5.40;;;14.80;99.90;;;;;;5075975;28;20208;-69
2022/05/15 06:34:53;;;;;;;5.90;5.40;;;14.90;99.90;;;;;;5076021;28;20228;-69
2022/05/15 06:37:19;;;;;;;6.20;5.60;;;14.90;99.90;;;;;;5075777;28;20692;-69
2022/05/15 06:39:47;;;;;;;5.82;5.05;;;15.10;99.90;;;;;;5075960;28;20303;-69
2022/05/15 06:42:14;;;;;;;5.57;5.05;;;15.20;99.90;;;;;;5075573;28;20673;-69
2022/05/15 06:44:41;;;;;;;5.45;4.63;;;15.40;99.90;;;;;;5075146;28;20325;-69
2022/05/15 06:47:09;;;;;;;6.07;5.47;;;15.40;99.90;;;;;;5075626;28;20243;-69
2022/05/15 06:49:36;;;;;;;6.55;5.40;;;15.50;99.90;;;;;;5075784;28;20292;-70
2022/05/15 06:52:02;;;;;;;7.15;6.18;;;15.60;99.90;;;;;;5075791;28;20628;-69
2022/05/15 06:54:29;;;;;;;7.72;6.80;;;15.60;99.90;;;;;;5075157;28;20697;-69
2022/05/15 06:59:41;;;;;;;6.63;5.93;;;15.90;99.90;;;;;;5075723;28;20591;-69
2022/05/15 07:02:09;;;;;;;5.80;5.30;;;16.00;99.90;;;;;;5075363;28;20201;-69
2022/05/15 07:04:36;;;;;;;5.43;4.93;;;16.10;99.90;;;;;;5075303;28;20230;-69
2022/05/15 07:07:03;;;;;;;6.35;5.75;;;16.20;99.90;;;;;;5075542;28;20209;-69
2022/05/15 07:09:30;;;;;;;6.43;5.18;;;16.30;99.90;;;;;;5075287;28;20210;-69
2022/05/15 07:11:57;;;;;;;6.05;5.50;;;16.40;99.90;;;;;;5075428;28;20298;-69
2022/05/15 07:14:24;;;;;;;5.82;5.32;;;16.50;99.90;;;;;;5075100;28;20217;-69
2022/05/15 07:16:51;;;;;;;6.35;4.70;;;16.60;99.90;;;;;;5074929;28;20771;-69
2022/05/15 07:19:19;;;;;;;5.15;4.75;;;16.60;99.90;;;;;;5075275;28;20201;-69
2022/05/15 07:21:46;;;;;;;5.95;5.45;;;16.60;99.90;;;;;;5075214;28;20301;-69
2022/05/15 07:24:12;;;;;;;6.10;5.43;;;16.60;99.90;;;;;;5074903;28;20229;-69
2022/05/15 07:26:44;;;;;;;5.05;4.65;;;16.60;99.90;;;;;;5075063;28;20240;-69
2022/05/15 07:29:10;;;;;;;5.30;4.90;;;16.60;99.90;;;;;;5075031;28;20213;-68
2022/05/15 07:31:37;;;;;;;5.05;4.60;;;16.80;99.90;;;;;;5075075;28;20598;-69
2022/05/15 07:34:04;;;;;;;4.60;4.20;;;16.90;99.90;;;;;;5074777;28;20213;-69
2022/05/15 07:36:32;;;;;;;4.63;4.22;;;17.00;99.90;;;;;;5074898;28;20592;-69
2022/05/15 07:38:59;;;;;;;4.63;4.22;;;17.20;99.90;;;;;;5074834;28;20297;-69
2022/05/15 07:41:26;;;;;;;4.00;3.70;;;17.40;99.90;;;;;;5074719;28;20209;-69
2022/05/15 07:43:53;;;;;;;5.03;4.63;;;17.40;99.90;;;;;;5074250;28;20313;-69
2022/05/15 07:46:21;;;;;;;5.65;4.80;;;17.60;99.90;;;;;;5074670;28;20234;-69
2022/05/15 07:48:47;;;;;;;4.93;4.53;;;17.70;99.90;;;;;;5074668;28;20297;-69
2022/05/15 07:51:14;;;;;;;4.47;4.18;;;17.80;99.90;;;;;;5074603;28;20298;-69
2022/05/15 07:53:43;;;;;;;4.43;4.03;;;17.90;98.70;;;;;;5074262;28;20297;-69
2022/05/15 07:56:12;;;;;;;4.18;3.88;;;17.90;99.30;;;;;;5073261;28;20704;-69
2022/05/15 07:58:39;;;;;;;4.85;4.22;;;18.00;99.00;;;;;;5074217;28;20681;-69
2022/05/15 08:01:06;;;;;;;4.95;4.55;;;18.20;99.10;;;;;;5074407;28;20208;-69
2022/05/15 08:03:37;;;;;;;4.57;4.10;;;18.40;98.30;;;;;;5074116;28;20219;-69
2022/05/15 08:08:50;;;;;;;4.03;3.73;;;18.90;97.40;;;;;;5074096;28;20434;-69
2022/05/15 08:11:17;;;;;;;4.13;3.57;;;19.80;95.50;;;;;;5074162;28;20546;-69
2022/05/15 08:13:44;;;;;;;3.93;3.60;;;20.50;92.90;;;;;;5074021;28;20798;-69
2022/05/15 08:16:11;;;;;;;4.90;3.77;;;21.10;92.60;;;;;;5073790;28;20475;-69
2022/05/15 08:24:08;;;;;;;4.00;3.70;;;24.00;84.40;;;;;;5073643;28;20472;-69
2022/05/15 08:26:37;;;;;;;4.27;3.80;;;24.30;81.00;;;;;;5073939;28;20469;-69
2022/05/15 08:29:03;;;;;;;4.23;3.77;;;25.90;75.60;;;;;;5073946;28;20458;-69
2022/05/15 08:31:30;;;;;;;3.77;3.37;;;27.40;67.70;;;;;;5073932;28;20449;-69
2022/05/15 08:33:57;;;;;;;3.30;3.10;;;28.80;60.00;;;;;;5073624;28;20440;-70
2022/05/15 08:36:24;;;;;;;3.60;3.30;;;30.50;55.10;;;;;;5073895;28;20465;-69
2022/05/15 08:38:51;;;;;;;3.50;3.30;;;30.90;50.30;;;;;;5073655;28;20948;-69
2022/05/15 08:41:28;;;;;;;3.43;3.13;;;30.30;51.20;;;;;;5073794;28;20445;-70
2022/05/15 08:44:04;;;;;;;3.37;3.17;;;31.30;49.90;;;;;;5073513;28;20973;-70
2022/05/15 08:46:37;;;;;;;4.03;3.63;;;31.60;45.60;;;;;;5073469;28;20494;-70
2022/05/15 08:49:09;;;;;;;3.90;3.60;;;31.50;46.40;;;;;;5073879;28;20441;-69
2022/05/15 08:51:37;;;;;;;3.60;3.30;;;31.70;48.30;;;;;;5073589;28;20441;-70
2022/05/15 08:54:08;;;;;;;2.97;2.77;;;33.60;46.80;;;;;;5073178;28;20457;-70
2022/05/15 08:56:45;;;;;;;3.83;3.53;;;34.60;43.80;;;;;;5073349;28;20461;-68
2022/05/15 08:59:22;;;;;;;3.13;2.93;;;34.10;42.30;;;;;;5073645;28;20791;-68
2022/05/15 09:01:52;;;;;;;3.60;3.30;;;34.10;44.40;;;;;;5073631;28;20531;-68
2022/05/15 09:04:19;;;;;;;3.47;3.03;;;34.40;40.30;;;;;;5073469;28;20796;-68
2022/05/15 09:07:06;;;;;;;4.73;3.70;;;36.00;41.20;;;;;;5073282;28;20469;-68
2022/05/15 09:09:44;;;;;;;3.50;3.20;;;34.90;39.50;;;;;;5073443;28;20445;-68
2022/05/15 09:12:17;;;;;;;3.60;3.30;;;35.60;40.10;;;;;;5073618;28;20455;-67
2022/05/15 09:15:00;;;;;;;2.97;2.77;;;36.80;37.50;;;;;;5073263;28;20533;-68
2022/05/15 09:17:42;;;;;;;2.97;2.77;;;38.40;36.30;;;;;;5073507;28;20437;-68
2022/05/15 09:20:12;;;;;;;3.67;3.40;;;38.10;35.60;;;;;;5073471;28;20946;-68
2022/05/15 09:22:43;;;;;;;2.60;2.40;;;37.20;36.30;;;;;;5073131;28;20535;-68
2022/05/15 09:25:17;;;;;;;3.10;2.90;;;37.00;35.20;;;;;;5073177;28;20491;-68
2022/05/15 09:27:59;;;;;;;2.90;2.70;;;37.00;37.30;;;;;;5073422;28;20433;-68
2022/05/15 09:30:33;;;;;;;2.90;2.70;;;36.90;38.50;;;;;;5073313;28;20438;-68
2022/05/15 09:33:00;;;;;;;3.47;3.17;;;37.20;37.00;;;;;;5073675;28;20798;-68
2022/05/15 09:35:33;;;;;;;2.93;2.73;;;36.50;35.90;;;;;;5073102;28;20493;-70
2022/05/15 09:43:32;;;;;;;4.13;3.83;;;34.90;36.10;;;;;;5072802;28;20421;-70
2022/05/15 09:46:00;;;;;;;3.10;2.87;;;35.60;36.50;;;;;;5072927;28;21048;-70
2022/05/15 09:48:34;;;;;;;3.23;3.03;;;36.80;36.60;;;;;;5073065;28;20957;-70
2022/05/15 09:51:03;;;;;;;2.73;2.63;;;36.40;35.50;;;;;;5073045;28;20960;-70
2022/05/15 09:53:42;;;;;;;2.80;2.70;;;35.80;36.30;;;;;;5072732;28;20436;-70
2022/05/15 09:56:11;;;;;;;3.03;2.83;;;35.70;36.30;;;;;;5072814;28;20966;-70
2022/05/15 09:58:44;;;;;;;3.10;2.97;;;35.60;35.30;;;;;;5073089;28;20447;-70
2022/05/15 10:01:21;;;;;;;3.30;3.00;;;35.10;35.30;;;;;;5072954;28;20446;-70
2022/05/15 10:03:54;;;;;;;2.90;2.70;;;34.00;37.00;;;;;;5072678;28;20440;-70
2022/05/15 10:06:24;;;;;;;3.30;3.10;;;34.30;40.30;;;;;;5072967;28;20500;-70
2022/05/15 10:09:15;;;;;;;2.93;2.73;;;34.80;37.20;;;;;;5073470;28;20445;-70
2022/05/15 10:11:46;;;;;;;2.77;2.57;;;34.80;36.10;;;;;;5058016;28;20478;-70
2022/05/15 10:14:27;;;;;;;3.10;2.90;;;35.50;36.50;;;;;;5072451;28;20481;-70
2022/05/15 10:16:56;;;;;;;3.40;2.97;;;35.70;36.30;;;;;;5072679;28;20429;-70
2022/05/15 10:19:32;;;;;;;3.20;3.00;;;36.00;35.70;;;;;;5074633;28;20436;-70
2022/05/15 10:22:10;;;;;;;2.90;2.70;;;36.20;34.80;;;;;;5076339;28;20935;-70
2022/05/15 10:24:41;;;;;;;2.80;2.70;;;36.30;35.60;;;;;;5076293;28;20445;-68
2022/05/15 10:27:11;;;;;;;4.20;2.63;;;36.90;34.40;;;;;;5076073;28;20950;-68
2022/05/15 10:29:45;;;;;;;3.10;2.90;;;36.80;36.20;;;;;;5076065;28;20448;-68
2022/05/15 10:32:17;;;;;;;3.13;2.93;;;36.70;34.50;;;;;;5076023;28;20448;-70
2022/05/15 10:34:44;;;;;;;3.53;2.93;;;36.40;36.90;;;;;;5076019;28;20906;-70
2022/05/15 10:37:35;;;;;;;3.57;3.27;;;36.80;35.10;;;;;;5075804;28;20935;-71
2022/05/15 10:40:17;;;;;;;4.03;3.73;;;37.70;33.50;;;;;;5075873;28;20448;-70
2022/05/15 10:42:55;;;;;;;3.47;3.17;;;37.20;32.40;;;;;;5075829;28;20449;-70
2022/05/15 10:45:32;;;;;;;3.77;3.47;;;36.00;32.40;;;;;;5075797;28;20461;-70
2022/05/15 10:48:10;;;;;;;3.27;3.07;;;34.20;35.70;;;;;;5075729;28;20939;-70
2022/05/15 10:50:48;;;;;;;2.60;2.50;;;33.40;37.20;;;;;;5075917;28;20810;-70
2022/05/15 10:59:25;;;;;;;4.10;3.80;;;31.60;43.30;;;;;;5044643;28;20911;-70
2022/05/15 11:02:02;;;;;;;4.70;3.20;;;31.10;42.30;;;;;;5075617;28;20464;-70
2022/05/15 11:04:43;;;;;;;3.13;2.83;;;30.70;41.80;;;;;;5075196;28;20477;-71
2022/05/15 11:07:15;;;;;;;3.17;2.90;;;30.40;43.40;;;;;;5075659;28;20433;-70
2022/05/15 11:09:55;;;;;;;4.20;3.00;;;29.90;46.30;;;;;;5075430;28;20447;-69
2022/05/15 11:12:31;;;;;;;3.40;3.10;;;29.40;43.90;;;;;;5075240;28;20443;-70
2022/05/15 11:15:08;;;;;;;3.37;3.17;;;29.20;44.60;;;;;;5075054;28;20978;-70
2022/05/15 11:17:42;;;;;;;3.00;2.80;;;29.10;45.20;;;;;;5075139;28;20909;-70
2022/05/15 11:20:15;;;;;;;4.47;3.00;;;28.90;45.20;;;;;;5075325;28;20526;-69
2022/05/15 11:22:46;;;;;;;3.60;3.30;;;28.70;46.60;;;;;;5074947;28;20934;-69
2022/05/15 11:25:19;;;;;;;3.73;3.33;;;28.70;46.20;;;;;;5074875;28;20470;-69
2022/05/15 11:27:49;;;;;;;4.40;4.10;;;28.60;49.30;;;;;;5074955;28;20932;-70
2022/05/15 11:30:21;;;;;;;4.00;3.70;;;28.50;46.50;;;;;;5074946;28;20442;-70
2022/05/15 11:33:03;;;;;;;3.50;3.30;;;28.70;45.40;;;;;;5074812;28;20475;-70
2022/05/15 11:35:33;;;;;;;3.00;2.80;;;28.80;44.20;;;;;;5074950;28;20488;-69
2022/05/15 11:38:26;;;;;;;5.80;5.30;;;29.00;45.00;;;;;;5075175;28;20479;-70
2022/05/15 11:40:54;;;;;;;5.27;4.77;;;29.10;43.00;;;;;;5074762;28;21034;-69
2022/05/15 11:43:56;;;;;;;4.33;4.03;;;28.90;44.30;;;;;;5074695;28;20447;-69
2022/05/15 11:46:43;;;;;;;3.40;3.20;;;28.60;44.00;;;;;;5074766;28;20471;-69
2022/05/15 11:49:15;;;;;;;3.63;3.43;;;28.50;45.20;;;;;;5074539;28;20527;-70
2022/05/15 11:51:43;;;;;;;3.70;3.50;;;28.60;44.80;;;;;;5074658;28;20457;-69
2022/05/15 11:54:28;;;;;;;4.07;3.60;;;28.70;44.70;;;;;;5074194;28;20508;-69
2022/05/15 11:56:56;;;;;;;3.60;3.40;;;28.90;45.40;;;;;;5074523;28;20483;-70
2022/05/15 11:59:26;;;;;;;3.63;3.33;;;29.00;42.80;;;;;;5074493;28;20448;-70
2022/05/15 12:01:55;;;;;;;4.03;3.20;;;29.10;43.10;;;;;;5074421;28;20531;-69
2022/05/15 12:04:55;;;;;;;3.27;3.07;;;28.90;43.10;;;;;;5074181;28;20439;-70
2022/05/15 12:07:50;;;;;;;3.50;3.20;;;28.90;43.00;;;;;;5074053;28;20454;-70
2022/05/15 12:10:22;;;;;;;3.73;3.40;;;28.70;43.70;;;;;;5074292;28;20450;-70
2022/05/15 12:13:03;;;;;;;4.20;3.80;;;28.60;44.00;;;;;;5073973;28;20452;-70
2022/05/15 12:15:45;;;;;;;3.43;3.13;;;28.50;44.60;;;;;;5073848;28;21088;-70
2022/05/15 12:18:34;;;;;;;3.17;2.97;;;28.50;44.00;;;;;;5074043;28;20997;-70
2022/05/15 12:21:07;;;;;;;3.50;3.20;;;28.50;43.90;;;;;;5074129;28;20812;-70
2022/05/15 12:23:36;;;;;;;3.30;3.10;;;28.70;43.60;;;;;;5074017;28;20447;-69
2022/05/15 12:26:16;;;;;;;3.60;3.30;;;28.50;44.20;;;;;;5073703;28;20471;-69
2022/05/15 12:28:52;;;;;;;3.50;3.20;;;28.30;44.90;;;;;;5074159;28;20452;-70
2022/05/15 12:31:30;;;;;;;3.70;3.40;;;28.40;44.30;;;;;;5073706;28;20474;-71
2022/05/15 12:34:07;;;;;;;4.63;3.40;;;28.60;43.60;;;;;;5073572;28;20914;-70
2022/05/15 12:36:39;;;;;;;3.43;3.13;;;28.70;44.50;;;;;;5073501;28;20986;-70
2022/05/15 12:39:06;;;;;;;3.53;3.33;;;28.60;44.00;;;;;;5073876;28;20439;-70
2022/05/15 12:41:37;;;;;;;4.23;3.93;;;28.50;44.60;;;;;;5073044;28;20532;-69
2022/05/15 12:44:05;;;;;;;3.70;3.40;;;28.50;45.30;;;;;;5073575;28;20459;-70
2022/05/15 12:46:35;;;;;;;3.60;3.30;;;28.50;45.60;;;;;;5073702;28;20477;-69
2022/05/15 12:49:01;;;;;;;3.50;3.20;;;28.20;43.90;;;;;;5073740;28;20445;-69
2022/05/15 12:51:32;;;;;;;3.23;3.03;;;28.20;43.50;;;;;;5073711;28;20445;-70
2022/05/15 12:54:01;;;;;;;3.57;3.37;;;27.90;43.90;;;;;;5073424;28;20958;-70
2022/05/15 12:56:31;;;;;;;3.27;3.07;;;27.80;46.90;;;;;;5073460;28;20488;-70
2022/05/15 12:59:00;;;;;;;3.60;3.27;;;27.80;46.40;;;;;;5073687;28;20803;-70
2022/05/15 13:01:30;;;;;;;3.37;3.17;;;27.90;45.10;;;;;;5073573;28;20528;-70
2022/05/15 13:03:59;;;;;;;3.20;3.00;;;28.00;46.20;;;;;;5073471;28;20536;-69
2022/05/15 13:06:33;;;;;;;3.30;3.10;;;28.00;44.10;;;;;;5073237;28;20515;-70
2022/05/15 13:09:04;;;;;;;6.17;5.50;;;28.10;44.50;;;;;;5073487;28;20476;-70
2022/05/15 13:11:43;;;;;;;19.27;17.00;;;28.20;43.30;;;;;;5073551;28;20450;-69
2022/05/15 13:14:18;;;;;;;18.03;15.40;;;28.40;42.60;;;;;;5073385;28;20546;-69
2022/05/15 13:16:49;;;;;;;5.53;5.00;;;28.60;44.40;;;;;;5073388;28;20489;-70
2022/05/15 13:19:28;;;;;;;4.30;4.00;;;28.60;42.90;;;;;;5073379;28;20447;-69
2022/05/15 13:21:58;;;;;;;7.27;5.90;;;28.60;42.60;;;;;;5073453;28;20528;-70
2022/05/15 13:24:27;;;;;;;3.70;3.40;;;28.70;41.70;;;;;;5073243;28;20439;-70